sensor_id;sensor_type;location;lat;lon;timestamp;pressure;altitude;pressure_sealevel;temperature;humidity
61674;BME280;47573;43.832;5.974;2022-12-20T00:01:33;96398.03;;;21.31;81.00
61674;BME280;47573;43.832;5.974;2022-12-20T00:03:14;96392.78;;;21.30;80.97
61674;BME280;47573;43.832;5.974;2022-12-20T00:04:54;96400.31;;;21.28;81.11
61674;BME280;47573;43.832;5.974;2022-12-20T00:06:35;96387.34;;;21.10;77.17
61674;BME280;47573;43.832;5.974;2022-12-20T00:08:16;96396.34;;;20.70;74.14
61674;BME280;47573;43.832;5.974;2022-12-20T00:09:58;96391.88;;;20.49;71.86
61674;BME280;47573;43.832;5.974;2022-12-20T00:11:39;96382.69;;;20.44;75.70
61674;BME280;47573;43.832;5.974;2022-12-20T00:13:20;96383.41;;;20.65;75.41
61674;BME280;47573;43.832;5.974;2022-12-20T00:15:00;96382.59;;;20.78;75.15
61674;BME280;47573;43.832;5.974;2022-12-20T00:16:41;96380.97;;;20.83;75.37
61674;BME280;47573;43.832;5.974;2022-12-20T00:18:21;96381.81;;;20.91;75.78
61674;BME280;47573;43.832;5.974;2022-12-20T00:20:02;96383.50;;;20.92;76.10
61674;BME280;47573;43.832;5.974;2022-12-20T00:21:43;96386.84;;;20.94;76.34
61674;BME280;47573;43.832;5.974;2022-12-20T00:23:23;96373.91;;;20.96;76.48
61674;BME280;47573;43.832;5.974;2022-12-20T00:25:06;96381.00;;;20.97;77.06
61674;BME280;47573;43.832;5.974;2022-12-20T00:26:46;96377.25;;;20.98;77.25
61674;BME280;47573;43.832;5.974;2022-12-20T00:28:27;96365.53;;;20.97;77.66
61674;BME280;47573;43.832;5.974;2022-12-20T00:30:08;96366.41;;;20.98;77.56
61674;BME280;47573;43.832;5.974;2022-12-20T00:31:49;96362.63;;;20.99;77.92
61674;BME280;47573;43.832;5.974;2022-12-20T00:33:30;96371.81;;;20.98;77.80
61674;BME280;47573;43.832;5.974;2022-12-20T00:35:10;96370.13;;;20.97;78.10
61674;BME280;47573;43.832;5.974;2022-12-20T00:36:51;96366.41;;;20.98;78.38
61674;BME280;47573;43.832;5.974;2022-12-20T00:38:32;96361.19;;;20.96;78.45
61674;BME280;47573;43.832;5.974;2022-12-20T00:40:14;96369.72;;;21.00;77.93
61674;BME280;47573;43.832;5.974;2022-12-20T00:41:55;96370.13;;;20.97;78.64
61674;BME280;47573;43.832;5.974;2022-12-20T00:43:36;96357.63;;;20.96;78.42
61674;BME280;47573;43.832;5.974;2022-12-20T00:45:16;96363.03;;;20.96;78.71
61674;BME280;47573;43.832;5.974;2022-12-20T00:46:57;96368.53;;;21.02;78.75
61674;BME280;47573;43.832;5.974;2022-12-20T00:48:38;96368.03;;;20.99;78.69
61674;BME280;47573;43.832;5.974;2022-12-20T00:50:18;96360.13;;;20.97;79.00
61674;BME280;47573;43.832;5.974;2022-12-20T00:51:59;96357.63;;;20.96;79.17
61674;BME280;47573;43.832;5.974;2022-12-20T00:53:40;96364.50;;;20.92;79.55
61674;BME280;47573;43.832;5.974;2022-12-20T00:55:22;96361.34;;;20.95;79.42
61674;BME280;47573;43.832;5.974;2022-12-20T00:57:03;96362.19;;;20.89;79.84
61674;BME280;47573;43.832;5.974;2022-12-20T00:58:43;96358.84;;;20.87;80.14
61674;BME280;47573;43.832;5.974;2022-12-20T01:00:24;96366.34;;;20.84;79.98
61674;BME280;47573;43.832;5.974;2022-12-20T01:02:04;96364.69;;;20.83;80.02
61674;BME280;47573;43.832;5.974;2022-12-20T01:03:45;96366.56;;;20.83;80.05
61674;BME280;47573;43.832;5.974;2022-12-20T01:05:25;96361.34;;;20.81;80.22
61674;BME280;47573;43.832;5.974;2022-12-20T01:07:06;96363.44;;;20.79;79.83
61674;BME280;47573;43.832;5.974;2022-12-20T01:08:46;96363.44;;;20.79;80.01
61674;BME280;47573;43.832;5.974;2022-12-20T01:10:28;96367.16;;;20.78;79.96
61674;BME280;47573;43.832;5.974;2022-12-20T01:12:09;96363.81;;;20.76;80.24
61674;BME280;47573;43.832;5.974;2022-12-20T01:13:51;96364.22;;;20.73;80.51
61674;BME280;47573;43.832;5.974;2022-12-20T01:15:32;96364.22;;;20.73;80.36
61674;BME280;47573;43.832;5.974;2022-12-20T01:17:13;96363.56;;;20.71;80.44
61674;BME280;47573;43.832;5.974;2022-12-20T01:18:53;96361.91;;;20.70;80.33
61674;BME280;47573;43.832;5.974;2022-12-20T01:20:34;96360.44;;;20.68;80.32
61674;BME280;47573;43.832;5.974;2022-12-20T01:22:15;96360.88;;;20.71;80.09
61674;BME280;47573;43.832;5.974;2022-12-20T01:23:55;96361.91;;;20.70;80.22
61674;BME280;47573;43.832;5.974;2022-12-20T01:25:37;96360.66;;;20.66;80.54
61674;BME280;47573;43.832;5.974;2022-12-20T01:27:18;96351.66;;;20.66;80.45
61674;BME280;47573;43.832;5.974;2022-12-20T01:28:59;96355.22;;;20.66;80.56
61674;BME280;47573;43.832;5.974;2022-12-20T01:30:40;96349.16;;;20.64;80.76
61674;BME280;47573;43.832;5.974;2022-12-20T01:32:20;96350.19;;;20.63;80.41
61674;BME280;47573;43.832;5.974;2022-12-20T01:34:01;96347.47;;;20.63;80.08
61674;BME280;47573;43.832;5.974;2022-12-20T01:35:41;96345.81;;;20.62;80.26
61674;BME280;47573;43.832;5.974;2022-12-20T01:37:21;96355.00;;;20.61;80.32
61674;BME280;47573;43.832;5.974;2022-12-20T01:39:04;96354.34;;;20.59;80.39
61674;BME280;47573;43.832;5.974;2022-12-20T01:40:47;96355.41;;;20.58;80.59
61674;BME280;47573;43.832;5.974;2022-12-20T01:42:27;96350.00;;;20.58;80.12
61674;BME280;47573;43.832;5.974;2022-12-20T01:46:23;96354.56;;;20.58;80.26
61674;BME280;47573;43.832;5.974;2022-12-20T01:48:04;96346.63;;;20.56;80.46
61674;BME280;47573;43.832;5.974;2022-12-20T01:49:47;96345.38;;;20.52;80.58
61674;BME280;47573;43.832;5.974;2022-12-20T01:51:32;96345.38;;;20.52;80.18
61674;BME280;47573;43.832;5.974;2022-12-20T01:53:14;96349.13;;;20.51;80.20
61674;BME280;47573;43.832;5.974;2022-12-20T01:55:01;96346.41;;;20.51;80.28
61674;BME280;47573;43.832;5.974;2022-12-20T01:56:46;96342.22;;;20.49;80.30
61674;BME280;47573;43.832;5.974;2022-12-20T01:58:27;96340.34;;;20.49;80.20
61674;BME280;47573;43.832;5.974;2022-12-20T02:00:09;96340.34;;;20.49;80.14
61674;BME280;47573;43.832;5.974;2022-12-20T02:01:49;96340.75;;;20.46;80.48
61674;BME280;47573;43.832;5.974;2022-12-20T02:03:31;96333.66;;;20.45;80.42
61674;BME280;47573;43.832;5.974;2022-12-20T02:05:12;96333.66;;;20.45;80.24
61674;BME280;47573;43.832;5.974;2022-12-20T02:06:52;96331.56;;;20.47;80.46
61674;BME280;47573;43.832;5.974;2022-12-20T02:08:33;96326.53;;;20.44;80.45
61674;BME280;47573;43.832;5.974;2022-12-20T02:10:14;96316.75;;;20.43;80.51
61674;BME280;47573;43.832;5.974;2022-12-20T02:12:05;96321.94;;;20.45;80.45
61674;BME280;47573;43.832;5.974;2022-12-20T02:13:52;96319.44;;;20.43;80.20
61674;BME280;47573;43.832;5.974;2022-12-20T02:15:42;96310.69;;;20.41;80.24
61674;BME280;47573;43.832;5.974;2022-12-20T02:17:34;96309.00;;;20.40;80.49
61674;BME280;47573;43.832;5.974;2022-12-20T02:19:35;96306.69;;;20.37;80.30
61674;BME280;47573;43.832;5.974;2022-12-20T02:21:27;96304.00;;;20.37;80.54
61674;BME280;47573;43.832;5.974;2022-12-20T02:23:39;96307.34;;;20.39;80.34
61674;BME280;47573;43.832;5.974;2022-12-20T02:25:49;96298.56;;;20.37;80.35
61674;BME280;47573;43.832;5.974;2022-12-20T02:27:54;96304.00;;;20.37;80.07
61674;BME280;47573;43.832;5.974;2022-12-20T02:29:56;96302.31;;;20.36;80.14
61674;BME280;47573;43.832;5.974;2022-12-20T02:31:40;96298.97;;;20.34;80.03
61674;BME280;47573;43.832;5.974;2022-12-20T02:33:24;96300.66;;;20.35;80.05
61674;BME280;47573;43.832;5.974;2022-12-20T02:35:08;96291.88;;;20.33;80.15
61674;BME280;47573;43.832;5.974;2022-12-20T02:36:48;96294.81;;;20.32;80.19
61674;BME280;47573;43.832;5.974;2022-12-20T02:38:30;96303.13;;;20.30;79.83
61674;BME280;47573;43.832;5.974;2022-12-20T02:40:11;96297.25;;;20.27;80.07
61674;BME280;47573;43.832;5.974;2022-12-20T02:41:54;96290.59;;;20.29;80.01
61674;BME280;47573;43.832;5.974;2022-12-20T02:43:39;96299.78;;;20.28;79.72
61674;BME280;47573;43.832;5.974;2022-12-20T02:45:25;96306.88;;;20.29;79.75
61674;BME280;47573;43.832;5.974;2022-12-20T02:47:09;96302.47;;;20.28;79.80
61674;BME280;47573;43.832;5.974;2022-12-20T02:48:54;96303.53;;;20.27;79.83
61674;BME280;47573;43.832;5.974;2022-12-20T02:50:37;96304.34;;;20.28;79.83
61674;BME280;47573;43.832;5.974;2022-12-20T02:52:20;96287.25;;;20.27;79.19
61674;BME280;47573;43.832;5.974;2022-12-20T02:54:01;96295.41;;;20.27;79.52
61674;BME280;47573;43.832;5.974;2022-12-20T02:55:45;96296.44;;;20.26;79.66
61674;BME280;47573;43.832;5.974;2022-12-20T02:57:32;96293.06;;;20.24;79.78
61674;BME280;47573;43.832;5.974;2022-12-20T02:59:20;96296.84;;;20.23;79.62
61674;BME280;47573;43.832;5.974;2022-12-20T03:01:08;96290.78;;;20.21;79.49
61674;BME280;47573;43.832;5.974;2022-12-20T03:02:51;96289.72;;;20.22;79.47
61674;BME280;47573;43.832;5.974;2022-12-20T03:04:34;96290.78;;;20.21;79.41
61674;BME280;47573;43.832;5.974;2022-12-20T03:06:17;96292.66;;;20.21;79.43
61674;BME280;47573;43.832;5.974;2022-12-20T03:07:57;96295.16;;;20.22;79.45
61674;BME280;47573;43.832;5.974;2022-12-20T03:09:40;96297.22;;;20.20;79.55
61674;BME280;47573;43.832;5.974;2022-12-20T03:11:21;96296.38;;;20.20;79.17
61674;BME280;47573;43.832;5.974;2022-12-20T03:13:02;96304.97;;;20.23;79.15
61674;BME280;47573;43.832;5.974;2022-12-20T03:14:42;96302.28;;;20.23;79.39
61674;BME280;47573;43.832;5.974;2022-12-20T03:16:24;96298.50;;;20.24;79.19
61674;BME280;47573;43.832;5.974;2022-12-20T03:18:05;96302.28;;;20.23;79.37
61674;BME280;47573;43.832;5.974;2022-12-20T03:19:45;96294.69;;;20.19;79.19
61674;BME280;47573;43.832;5.974;2022-12-20T03:21:26;96305.53;;;20.19;79.20
61674;BME280;47573;43.832;5.974;2022-12-20T03:23:07;96293.84;;;20.18;79.20
61674;BME280;47573;43.832;5.974;2022-12-20T03:24:47;96298.94;;;20.21;79.01
61674;BME280;47573;43.832;5.974;2022-12-20T03:26:28;96298.94;;;20.21;79.06
61674;BME280;47573;43.832;5.974;2022-12-20T03:28:08;96295.94;;;20.16;79.41
61674;BME280;47573;43.832;5.974;2022-12-20T03:29:49;96291.34;;;20.17;79.07
61674;BME280;47573;43.832;5.974;2022-12-20T03:31:31;96288.84;;;20.15;78.98
61674;BME280;47573;43.832;5.974;2022-12-20T03:33:11;96288.22;;;20.13;79.26
61674;BME280;47573;43.832;5.974;2022-12-20T03:34:52;96290.94;;;20.13;79.13
61674;BME280;47573;43.832;5.974;2022-12-20T03:36:32;96285.50;;;20.13;79.09
61674;BME280;47573;43.832;5.974;2022-12-20T03:38:13;96278.00;;;20.15;79.05
61674;BME280;47573;43.832;5.974;2022-12-20T03:39:54;96287.56;;;20.11;79.16
61674;BME280;47573;43.832;5.974;2022-12-20T03:41:34;96285.91;;;20.10;79.39
61674;BME280;47573;43.832;5.974;2022-12-20T03:43:14;96289.63;;;20.09;79.16
61674;BME280;47573;43.832;5.974;2022-12-20T03:44:55;96275.88;;;20.04;79.26
61674;BME280;47573;43.832;5.974;2022-12-20T03:46:37;96284.22;;;20.09;79.28
61674;BME280;47573;43.832;5.974;2022-12-20T03:48:17;96280.88;;;20.07;79.11
61674;BME280;47573;43.832;5.974;2022-12-20T03:49:58;96283.56;;;20.07;79.15
61674;BME280;47573;43.832;5.974;2022-12-20T03:51:38;96298.81;;;20.08;79.22
61674;BME280;47573;43.832;5.974;2022-12-20T03:53:19;96284.63;;;20.06;79.03
61674;BME280;47573;43.832;5.974;2022-12-20T03:54:59;96279.22;;;20.06;79.26
61674;BME280;47573;43.832;5.974;2022-12-20T03:56:40;96279.41;;;20.04;79.36
61674;BME280;47573;43.832;5.974;2022-12-20T03:58:20;96284.63;;;20.06;78.94
61674;BME280;47573;43.832;5.974;2022-12-20T04:00:01;96280.22;;;20.05;79.15
61674;BME280;47573;43.832;5.974;2022-12-20T04:01:42;96274.19;;;20.03;79.13
61674;BME280;47573;43.832;5.974;2022-12-20T04:03:23;96272.50;;;20.02;79.28
61674;BME280;47573;43.832;5.974;2022-12-20T04:05:04;96268.13;;;20.01;79.22
61674;BME280;47573;43.832;5.974;2022-12-20T04:06:45;96275.44;;;20.00;79.16
61674;BME280;47573;43.832;5.974;2022-12-20T04:08:25;96269.56;;;19.97;79.20
61674;BME280;47573;43.832;5.974;2022-12-20T04:10:06;96269.19;;;20.00;79.36
61674;BME280;47573;43.832;5.974;2022-12-20T04:11:47;96278.56;;;20.04;78.93
61674;BME280;47573;43.832;5.974;2022-12-20T04:13:28;96272.50;;;20.02;78.88
61674;BME280;47573;43.832;5.974;2022-12-20T04:15:09;96266.47;;;20.00;79.20
61674;BME280;47573;43.832;5.974;2022-12-20T04:16:51;96269.19;;;20.00;78.92
61674;BME280;47573;43.832;5.974;2022-12-20T04:18:31;96267.47;;;19.99;78.92
61674;BME280;47573;43.832;5.974;2022-12-20T04:20:14;96262.47;;;19.96;78.89
61674;BME280;47573;43.832;5.974;2022-12-20T04:21:55;96257.91;;;19.96;79.03
61674;BME280;47573;43.832;5.974;2022-12-20T04:23:36;96264.13;;;19.97;78.91
61674;BME280;47573;43.832;5.974;2022-12-20T04:25:19;96257.06;;;19.96;79.21
61674;BME280;47573;43.832;5.974;2022-12-20T04:27:00;96257.06;;;19.96;79.30
61674;BME280;47573;43.832;5.974;2022-12-20T04:28:40;96257.06;;;19.96;78.95
61674;BME280;47573;43.832;5.974;2022-12-20T04:30:21;96262.47;;;19.96;78.85
61674;BME280;47573;43.832;5.974;2022-12-20T04:32:03;96257.44;;;19.93;79.03
61674;BME280;47573;43.832;5.974;2022-12-20T04:33:44;96256.44;;;19.94;79.02
61674;BME280;47573;43.832;5.974;2022-12-20T04:35:24;96254.09;;;19.91;78.79
61674;BME280;47573;43.832;5.974;2022-12-20T04:37:05;96254.09;;;19.91;78.95
61674;BME280;47573;43.832;5.974;2022-12-20T04:38:45;96253.25;;;19.90;78.64
61674;BME280;47573;43.832;5.974;2022-12-20T04:40:26;96243.25;;;19.91;78.71
61674;BME280;47573;43.832;5.974;2022-12-20T04:42:06;96247.03;;;19.90;78.73
61674;BME280;47573;43.832;5.974;2022-12-20T04:43:48;96251.81;;;19.88;78.75
61674;BME280;47573;43.832;5.974;2022-12-20T04:45:29;96246.56;;;19.86;78.92
61674;BME280;47573;43.832;5.974;2022-12-20T04:47:10;96253.69;;;19.87;78.94
61674;BME280;47573;43.832;5.974;2022-12-20T04:48:51;96254.91;;;19.85;78.95
61674;BME280;47573;43.832;5.974;2022-12-20T04:50:31;96259.31;;;19.86;78.94
61674;BME280;47573;43.832;5.974;2022-12-20T04:52:12;96247.19;;;19.82;78.82
61674;BME280;47573;43.832;5.974;2022-12-20T04:53:52;96243.44;;;19.83;78.91
61674;BME280;47573;43.832;5.974;2022-12-20T04:55:36;96249.50;;;19.85;78.88
61674;BME280;47573;43.832;5.974;2022-12-20T04:57:16;96258.03;;;19.82;78.76
61674;BME280;47573;43.832;5.974;2022-12-20T04:58:57;96252.63;;;19.82;79.04
61674;BME280;47573;43.832;5.974;2022-12-20T05:00:38;96253.25;;;19.84;78.78
61674;BME280;47573;43.832;5.974;2022-12-20T05:02:20;96248.22;;;19.81;78.75
61674;BME280;47573;43.832;5.974;2022-12-20T05:04:00;96246.53;;;19.80;79.09
61674;BME280;47573;43.832;5.974;2022-12-20T05:05:41;96246.53;;;19.80;78.88
61674;BME280;47573;43.832;5.974;2022-12-20T05:07:21;96254.50;;;19.81;78.80
61674;BME280;47573;43.832;5.974;2022-12-20T05:09:02;96244.88;;;19.79;78.80
61674;BME280;47573;43.832;5.974;2022-12-20T05:10:43;96247.59;;;19.79;79.04
61674;BME280;47573;43.832;5.974;2022-12-20T05:12:23;96250.31;;;19.79;78.72
61674;BME280;47573;43.832;5.974;2022-12-20T05:14:04;96250.31;;;19.79;78.87
61674;BME280;47573;43.832;5.974;2022-12-20T05:15:44;96244.88;;;19.79;78.77
61674;BME280;47573;43.832;5.974;2022-12-20T05:17:26;96250.31;;;19.79;78.71
61674;BME280;47573;43.832;5.974;2022-12-20T05:19:06;96243.19;;;19.78;78.97
61674;BME280;47573;43.832;5.974;2022-12-20T05:20:47;96242.38;;;19.77;78.89
61674;BME280;47573;43.832;5.974;2022-12-20T05:22:28;96239.66;;;19.77;78.78
61674;BME280;47573;43.832;5.974;2022-12-20T05:24:09;96239.84;;;19.76;78.57
61674;BME280;47573;43.832;5.974;2022-12-20T05:25:49;96234.84;;;19.73;78.81
61674;BME280;47573;43.832;5.974;2022-12-20T05:27:30;96236.13;;;19.77;78.58
61674;BME280;47573;43.832;5.974;2022-12-20T05:29:10;96236.50;;;19.74;78.65
61674;BME280;47573;43.832;5.974;2022-12-20T05:30:51;96229.00;;;19.76;78.87
61674;BME280;47573;43.832;5.974;2022-12-20T05:32:33;96236.50;;;19.74;78.85
61674;BME280;47573;43.832;5.974;2022-12-20T05:34:13;96231.09;;;19.74;78.62
61674;BME280;47573;43.832;5.974;2022-12-20T05:35:54;96238.56;;;19.72;78.88
61674;BME280;47573;43.832;5.974;2022-12-20T05:37:35;96224.00;;;19.73;78.64
61674;BME280;47573;43.832;5.974;2022-12-20T05:39:15;96233.78;;;19.74;78.64
61674;BME280;47573;43.832;5.974;2022-12-20T05:40:56;96232.34;;;19.71;78.52
61674;BME280;47573;43.832;5.974;2022-12-20T05:42:37;96236.91;;;19.71;78.53
61674;BME280;47573;43.832;5.974;2022-12-20T05:44:17;96231.50;;;19.71;78.51
61674;BME280;47573;43.832;5.974;2022-12-20T05:45:58;96233.16;;;19.72;78.47
61674;BME280;47573;43.832;5.974;2022-12-20T05:47:40;96236.06;;;19.70;78.69
61674;BME280;47573;43.832;5.974;2022-12-20T05:49:20;96235.22;;;19.70;78.67
61674;BME280;47573;43.832;5.974;2022-12-20T05:51:00;96234.41;;;19.69;78.54
61674;BME280;47573;43.832;5.974;2022-12-20T05:52:41;96230.22;;;19.67;78.58
61674;BME280;47573;43.832;5.974;2022-12-20T05:54:21;96226.88;;;19.65;78.42
61674;BME280;47573;43.832;5.974;2022-12-20T05:56:02;96215.63;;;19.68;78.69
61674;BME280;47573;43.832;5.974;2022-12-20T05:57:42;96223.13;;;19.66;78.53
61674;BME280;47573;43.832;5.974;2022-12-20T05:59:23;96222.94;;;19.67;78.47
61674;BME280;47573;43.832;5.974;2022-12-20T06:01:05;96212.28;;;19.66;78.72
61674;BME280;47573;43.832;5.974;2022-12-20T06:02:48;96213.97;;;19.67;78.58
61674;BME280;47573;43.832;5.974;2022-12-20T06:04:30;96209.56;;;19.66;78.50
61674;BME280;47573;43.832;5.974;2022-12-20T06:06:10;96217.69;;;19.66;78.27
61674;BME280;47573;43.832;5.974;2022-12-20T06:07:51;96216.91;;;19.65;78.47
61674;BME280;47573;43.832;5.974;2022-12-20T06:09:32;96219.97;;;19.62;78.48
61674;BME280;47573;43.832;5.974;2022-12-20T06:11:12;96223.53;;;19.63;78.24
61674;BME280;47573;43.832;5.974;2022-12-20T06:12:53;96218.13;;;19.63;78.33
61674;BME280;47573;43.832;5.974;2022-12-20T06:14:33;96211.84;;;19.62;78.50
61674;BME280;47573;43.832;5.974;2022-12-20T06:16:14;96217.28;;;19.62;78.28
61674;BME280;47573;43.832;5.974;2022-12-20T06:17:55;96218.13;;;19.63;78.24
61674;BME280;47573;43.832;5.974;2022-12-20T06:19:36;96213.09;;;19.60;78.31
61674;BME280;47573;43.832;5.974;2022-12-20T06:21:17;96209.34;;;19.61;78.25
61674;BME280;47573;43.832;5.974;2022-12-20T06:22:57;96211.84;;;19.62;78.44
61674;BME280;47573;43.832;5.974;2022-12-20T06:24:38;96199.34;;;19.61;78.10
61674;BME280;47573;43.832;5.974;2022-12-20T06:26:18;96204.75;;;19.61;78.26
61674;BME280;47573;43.832;5.974;2022-12-20T06:27:59;96202.25;;;19.60;78.09
61674;BME280;47573;43.832;5.974;2022-12-20T06:29:39;96205.16;;;19.58;78.08
61674;BME280;47573;43.832;5.974;2022-12-20T06:31:20;96215.16;;;19.58;78.26
61674;BME280;47573;43.832;5.974;2022-12-20T06:33:02;96210.38;;;19.60;78.37
61674;BME280;47573;43.832;5.974;2022-12-20T06:34:43;96209.75;;;19.58;77.99
61674;BME280;47573;43.832;5.974;2022-12-20T06:36:23;96207.25;;;19.56;78.09
61674;BME280;47573;43.832;5.974;2022-12-20T06:38:04;96202.66;;;19.57;78.03
61674;BME280;47573;43.832;5.974;2022-12-20T06:39:44;96210.16;;;19.55;78.09
61674;BME280;47573;43.832;5.974;2022-12-20T06:41:25;96204.75;;;19.55;78.23
61674;BME280;47573;43.832;5.974;2022-12-20T06:43:05;96207.25;;;19.56;78.35
61674;BME280;47573;43.832;5.974;2022-12-20T06:44:46;96202.66;;;19.57;78.20
61674;BME280;47573;43.832;5.974;2022-12-20T06:46:26;96208.91;;;19.57;78.11
61674;BME280;47573;43.832;5.974;2022-12-20T06:48:08;96208.09;;;19.57;77.95
61674;BME280;47573;43.832;5.974;2022-12-20T06:49:49;96209.75;;;19.58;77.95
61674;BME280;47573;43.832;5.974;2022-12-20T06:51:29;96211.81;;;19.56;77.97
61674;BME280;47573;43.832;5.974;2022-12-20T06:53:10;96211.81;;;19.56;78.00
61674;BME280;47573;43.832;5.974;2022-12-20T06:54:50;96221.19;;;19.53;78.30
61674;BME280;47573;43.832;5.974;2022-12-20T06:56:31;96219.31;;;19.54;78.03
61674;BME280;47573;43.832;5.974;2022-12-20T06:58:11;96223.06;;;19.53;78.14
61674;BME280;47573;43.832;5.974;2022-12-20T06:59:52;96221.38;;;19.52;77.97
61674;BME280;47573;43.832;5.974;2022-12-20T07:01:32;96225.78;;;19.53;77.87
61674;BME280;47573;43.832;5.974;2022-12-20T07:03:14;96223.06;;;19.53;78.12
61674;BME280;47573;43.832;5.974;2022-12-20T07:04:55;96221.38;;;19.52;77.97
61674;BME280;47573;43.832;5.974;2022-12-20T07:06:36;96225.97;;;19.51;78.25
61674;BME280;47573;43.832;5.974;2022-12-20T07:08:16;96227.84;;;19.51;77.96
61674;BME280;47573;43.832;5.974;2022-12-20T07:09:56;96225.97;;;19.51;78.01
61674;BME280;47573;43.832;5.974;2022-12-20T07:11:37;96225.53;;;19.48;78.10
61674;BME280;47573;43.832;5.974;2022-12-20T07:13:18;96217.59;;;19.46;78.13
61674;BME280;47573;43.832;5.974;2022-12-20T07:14:58;96218.41;;;19.47;78.09
61674;BME280;47573;43.832;5.974;2022-12-20T07:16:39;96219.28;;;19.47;78.01
61674;BME280;47573;43.832;5.974;2022-12-20T07:18:21;96215.91;;;19.45;77.98
61674;BME280;47573;43.832;5.974;2022-12-20T07:20:02;96207.59;;;19.47;78.09
61674;BME280;47573;43.832;5.974;2022-12-20T07:21:42;96218.41;;;19.47;78.16
61674;BME280;47573;43.832;5.974;2022-12-20T07:23:23;96215.72;;;19.47;77.99
61674;BME280;47573;43.832;5.974;2022-12-20T07:25:04;96217.59;;;19.46;78.06
61674;BME280;47573;43.832;5.974;2022-12-20T07:26:44;96235.09;;;19.44;77.95
61674;BME280;47573;43.832;5.974;2022-12-20T07:28:26;96220.31;;;19.46;78.00
61674;BME280;47573;43.832;5.974;2022-12-20T07:30:07;96222.19;;;19.46;77.61
61674;BME280;47573;43.832;5.974;2022-12-20T07:31:48;96220.50;;;19.45;78.15
61674;BME280;47573;43.832;5.974;2022-12-20T07:33:30;96227.16;;;19.42;77.88
61674;BME280;47573;43.832;5.974;2022-12-20T07:35:12;96236.75;;;19.45;78.02
61674;BME280;47573;43.832;5.974;2022-12-20T07:36:52;96230.06;;;19.41;77.91
61674;BME280;47573;43.832;5.974;2022-12-20T07:38:33;96229.63;;;19.37;77.96
61674;BME280;47573;43.832;5.974;2022-12-20T07:40:14;96233.81;;;19.40;78.00
61674;BME280;47573;43.832;5.974;2022-12-20T07:41:54;96232.97;;;19.39;77.90
61674;BME280;47573;43.832;5.974;2022-12-20T07:43:35;96246.13;;;19.42;78.02
61674;BME280;47573;43.832;5.974;2022-12-20T07:45:16;96245.50;;;19.40;77.99
61674;BME280;47573;43.832;5.974;2022-12-20T07:46:56;96246.31;;;19.41;77.90
61674;BME280;47573;43.832;5.974;2022-12-20T07:48:38;96248.00;;;19.42;77.68
61674;BME280;47573;43.832;5.974;2022-12-20T07:50:19;96246.31;;;19.41;77.85
61674;BME280;47573;43.832;5.974;2022-12-20T07:52:01;96241.72;;;19.41;77.82
61674;BME280;47573;43.832;5.974;2022-12-20T07:53:45;96243.59;;;19.41;77.71
61674;BME280;47573;43.832;5.974;2022-12-20T07:55:27;96235.88;;;19.38;77.82
61674;BME280;47573;43.832;5.974;2022-12-20T07:57:11;96231.50;;;19.37;77.89
61674;BME280;47573;43.832;5.974;2022-12-20T07:58:55;96236.72;;;19.38;77.87
61674;BME280;47573;43.832;5.974;2022-12-20T08:00:39;96233.19;;;19.38;77.58
61674;BME280;47573;43.832;5.974;2022-12-20T08:02:23;96242.97;;;19.39;77.67
61674;BME280;47573;43.832;5.974;2022-12-20T08:04:10;96240.47;;;19.37;77.56
61674;BME280;47573;43.832;5.974;2022-12-20T08:05:54;96240.47;;;19.37;77.72
61674;BME280;47573;43.832;5.974;2022-12-20T08:07:36;96240.47;;;19.37;77.77
61674;BME280;47573;43.832;5.974;2022-12-20T08:09:19;96238.81;;;19.36;77.57
61674;BME280;47573;43.832;5.974;2022-12-20T08:11:00;96234.63;;;19.34;77.69
61674;BME280;47573;43.832;5.974;2022-12-20T08:12:42;96234.19;;;19.37;77.79
61674;BME280;47573;43.832;5.974;2022-12-20T08:14:23;96236.09;;;19.36;77.43
61674;BME280;47573;43.832;5.974;2022-12-20T08:16:05;96241.69;;;19.35;77.72
61674;BME280;47573;43.832;5.974;2022-12-20T08:17:46;96247.09;;;19.35;77.78
61674;BME280;47573;43.832;5.974;2022-12-20T08:19:28;96245.03;;;19.37;77.38
61674;BME280;47573;43.832;5.974;2022-12-20T08:21:08;96237.94;;;19.36;77.61
61674;BME280;47573;43.832;5.974;2022-12-20T08:22:49;96242.72;;;19.34;77.68
61674;BME280;47573;43.832;5.974;2022-12-20T08:24:29;96243.38;;;19.36;77.42
61674;BME280;47573;43.832;5.974;2022-12-20T08:26:10;96235.03;;;19.37;77.41
61674;BME280;47573;43.832;5.974;2022-12-20T08:27:50;96240.88;;;19.34;77.20
61674;BME280;47573;43.832;5.974;2022-12-20T08:29:31;96230.19;;;19.33;77.52
61674;BME280;47573;43.832;5.974;2022-12-20T08:31:11;96226.66;;;19.32;77.32
61674;BME280;47573;43.832;5.974;2022-12-20T08:32:52;96222.91;;;19.33;77.60
61674;BME280;47573;43.832;5.974;2022-12-20T08:34:34;96232.53;;;19.36;77.81
61674;BME280;47573;43.832;5.974;2022-12-20T08:36:14;96226.75;;;19.45;77.38
61674;BME280;47573;43.832;5.974;2022-12-20T08:37:55;96225.53;;;19.48;77.01
61674;BME280;47573;43.832;5.974;2022-12-20T08:39:35;96226.31;;;19.42;77.24
61674;BME280;47573;43.832;5.974;2022-12-20T08:41:16;96236.09;;;19.43;77.43
61674;BME280;47573;43.832;5.974;2022-12-20T08:42:57;96242.56;;;19.42;77.41
61674;BME280;47573;43.832;5.974;2022-12-20T08:44:37;96240.88;;;19.41;77.88
61674;BME280;47573;43.832;5.974;2022-12-20T08:46:18;96235.47;;;19.41;78.00
61674;BME280;47573;43.832;5.974;2022-12-20T08:47:58;96238.44;;;19.46;77.60
61674;BME280;47573;43.832;5.974;2022-12-20T08:49:40;96231.16;;;19.46;77.57
61674;BME280;47573;43.832;5.974;2022-12-20T08:51:21;96237.16;;;19.42;77.65
61674;BME280;47573;43.832;5.974;2022-12-20T08:53:01;96238.38;;;19.39;77.92
61674;BME280;47573;43.832;5.974;2022-12-20T08:54:42;96240.06;;;19.40;77.78
61674;BME280;47573;43.832;5.974;2022-12-20T08:56:23;96237.94;;;19.36;78.05
61674;BME280;47573;43.832;5.974;2022-12-20T08:58:03;96245.44;;;19.34;78.26
61674;BME280;47573;43.832;5.974;2022-12-20T08:59:44;96243.38;;;19.36;78.22
61674;BME280;47573;43.832;5.974;2022-12-20T09:01:24;96237.94;;;19.36;78.19